sensor_id;sensor_type;location;lat;lon;timestamp;P1;durP1;ratioP1;P2;durP2;ratioP2
53287;SDS011;39172;45.550;12.072;2023-02-08T00:02:53;31.50;;;18.27;;
53287;SDS011;39172;45.550;12.072;2023-02-08T00:08:54;23.02;;;13.68;;
53287;SDS011;39172;45.550;12.072;2023-02-08T00:14:55;23.27;;;14.43;;
53287;SDS011;39172;45.550;12.072;2023-02-08T00:20:56;31.73;;;17.85;;
53287;SDS011;39172;45.550;12.072;2023-02-08T00:26:56;21.83;;;12.30;;
53287;SDS011;39172;45.550;12.072;2023-02-08T00:32:57;21.48;;;12.95;;
53287;SDS011;39172;45.550;12.072;2023-02-08T00:39:00;30.08;;;16.40;;
53287;SDS011;39172;45.550;12.072;2023-02-08T00:45:01;26.38;;;14.85;;
53287;SDS011;39172;45.550;12.072;2023-02-08T00:57:03;24.42;;;14.32;;
53287;SDS011;39172;45.550;12.072;2023-02-08T01:03:05;19.58;;;10.75;;
53287;SDS011;39172;45.550;12.072;2023-02-08T01:09:06;24.35;;;14.15;;
53287;SDS011;39172;45.550;12.072;2023-02-08T01:15:06;23.15;;;13.75;;
53287;SDS011;39172;45.550;12.072;2023-02-08T01:21:12;21.77;;;11.70;;
53287;SDS011;39172;45.550;12.072;2023-02-08T01:27:14;26.63;;;15.30;;
53287;SDS011;39172;45.550;12.072;2023-02-08T01:33:15;25.80;;;13.65;;
53287;SDS011;39172;45.550;12.072;2023-02-08T01:39:15;23.65;;;13.93;;
53287;SDS011;39172;45.550;12.072;2023-02-08T01:45:26;24.48;;;13.88;;
53287;SDS011;39172;45.550;12.072;2023-02-08T01:51:29;23.38;;;13.73;;
53287;SDS011;39172;45.550;12.072;2023-02-08T01:57:31;21.60;;;12.05;;
53287;SDS011;39172;45.550;12.072;2023-02-08T02:03:32;24.63;;;13.48;;
53287;SDS011;39172;45.550;12.072;2023-02-08T02:09:48;21.33;;;12.43;;
53287;SDS011;39172;45.550;12.072;2023-02-08T02:15:51;19.52;;;10.75;;
53287;SDS011;39172;45.550;12.072;2023-02-08T02:35:18;23.95;;;13.15;;
53287;SDS011;39172;45.550;12.072;2023-02-08T02:41:02;25.90;;;13.90;;
53287;SDS011;39172;45.550;12.072;2023-02-08T02:47:08;22.17;;;11.95;;
53287;SDS011;39172;45.550;12.072;2023-02-08T02:53:30;17.50;;;10.00;;
53287;SDS011;39172;45.550;12.072;2023-02-08T02:59:33;18.23;;;9.95;;
53287;SDS011;39172;45.550;12.072;2023-02-08T03:05:35;23.55;;;12.30;;
53287;SDS011;39172;45.550;12.072;2023-02-08T03:11:36;26.35;;;13.60;;
53287;SDS011;39172;45.550;12.072;2023-02-08T03:23:43;23.98;;;12.70;;
53287;SDS011;39172;45.550;12.072;2023-02-08T03:35:52;20.88;;;11.30;;
53287;SDS011;39172;45.550;12.072;2023-02-08T03:42:00;21.92;;;12.35;;
53287;SDS011;39172;45.550;12.072;2023-02-08T03:48:04;23.20;;;11.30;;
53287;SDS011;39172;45.550;12.072;2023-02-08T03:54:11;20.50;;;10.95;;
53287;SDS011;39172;45.550;12.072;2023-02-08T04:00:14;24.30;;;12.88;;
53287;SDS011;39172;45.550;12.072;2023-02-08T04:06:16;26.13;;;13.50;;
53287;SDS011;39172;45.550;12.072;2023-02-08T04:12:17;25.88;;;14.07;;
53287;SDS011;39172;45.550;12.072;2023-02-08T04:18:18;25.17;;;13.13;;
53287;SDS011;39172;45.550;12.072;2023-02-08T04:24:18;27.17;;;13.75;;
53287;SDS011;39172;45.550;12.072;2023-02-08T04:30:20;20.00;;;10.55;;
53287;SDS011;39172;45.550;12.072;2023-02-08T04:36:21;24.85;;;13.52;;
53287;SDS011;39172;45.550;12.072;2023-02-08T04:42:21;23.95;;;12.40;;
53287;SDS011;39172;45.550;12.072;2023-02-08T04:48:22;20.52;;;10.63;;
53287;SDS011;39172;45.550;12.072;2023-02-08T04:54:23;27.83;;;14.35;;
53287;SDS011;39172;45.550;12.072;2023-02-08T05:00:24;29.65;;;14.30;;
53287;SDS011;39172;45.550;12.072;2023-02-08T05:06:25;26.33;;;14.18;;
53287;SDS011;39172;45.550;12.072;2023-02-08T05:12:26;24.92;;;12.30;;
53287;SDS011;39172;45.550;12.072;2023-02-08T05:18:26;25.73;;;13.43;;
53287;SDS011;39172;45.550;12.072;2023-02-08T05:24:27;19.30;;;10.43;;
53287;SDS011;39172;45.550;12.072;2023-02-08T05:30:28;28.20;;;14.35;;
53287;SDS011;39172;45.550;12.072;2023-02-08T05:36:29;31.45;;;14.73;;
53287;SDS011;39172;45.550;12.072;2023-02-08T05:42:30;19.05;;;10.10;;
53287;SDS011;39172;45.550;12.072;2023-02-08T05:48:31;25.88;;;13.98;;
53287;SDS011;39172;45.550;12.072;2023-02-08T05:54:31;26.45;;;13.88;;
53287;SDS011;39172;45.550;12.072;2023-02-08T06:00:32;26.80;;;14.35;;
53287;SDS011;39172;45.550;12.072;2023-02-08T06:06:33;29.88;;;15.77;;
53287;SDS011;39172;45.550;12.072;2023-02-08T06:12:34;22.83;;;12.00;;
53287;SDS011;39172;45.550;12.072;2023-02-08T06:18:35;21.73;;;11.65;;
53287;SDS011;39172;45.550;12.072;2023-02-08T06:24:36;30.15;;;15.40;;
53287;SDS011;39172;45.550;12.072;2023-02-08T06:30:37;24.98;;;13.27;;
53287;SDS011;39172;45.550;12.072;2023-02-08T06:36:38;22.25;;;12.10;;
53287;SDS011;39172;45.550;12.072;2023-02-08T06:42:39;27.15;;;13.85;;
53287;SDS011;39172;45.550;12.072;2023-02-08T06:48:39;30.25;;;14.50;;
53287;SDS011;39172;45.550;12.072;2023-02-08T06:54:40;24.17;;;12.68;;
53287;SDS011;39172;45.550;12.072;2023-02-08T07:00:41;28.52;;;14.02;;
53287;SDS011;39172;45.550;12.072;2023-02-08T07:06:49;26.80;;;12.80;;
53287;SDS011;39172;45.550;12.072;2023-02-08T07:12:49;22.80;;;11.93;;
53287;SDS011;39172;45.550;12.072;2023-02-08T07:18:50;27.20;;;14.30;;
53287;SDS011;39172;45.550;12.072;2023-02-08T07:24:51;23.58;;;12.68;;
53287;SDS011;39172;45.550;12.072;2023-02-08T07:30:52;24.08;;;12.60;;
53287;SDS011;39172;45.550;12.072;2023-02-08T07:36:53;33.85;;;16.80;;
53287;SDS011;39172;45.550;12.072;2023-02-08T07:42:54;28.05;;;15.27;;
53287;SDS011;39172;45.550;12.072;2023-02-08T07:49:05;25.85;;;13.50;;
53287;SDS011;39172;45.550;12.072;2023-02-08T07:55:06;27.92;;;14.10;;
53287;SDS011;39172;45.550;12.072;2023-02-08T08:01:07;24.63;;;13.02;;
53287;SDS011;39172;45.550;12.072;2023-02-08T08:07:08;25.90;;;12.80;;
53287;SDS011;39172;45.550;12.072;2023-02-08T08:13:09;30.35;;;16.10;;
53287;SDS011;39172;45.550;12.072;2023-02-08T08:19:09;26.92;;;13.98;;
53287;SDS011;39172;45.550;12.072;2023-02-08T08:25:10;24.85;;;12.80;;
53287;SDS011;39172;45.550;12.072;2023-02-08T08:31:15;31.77;;;16.15;;
53287;SDS011;39172;45.550;12.072;2023-02-08T08:37:16;23.95;;;12.50;;
53287;SDS011;39172;45.550;12.072;2023-02-08T08:43:17;22.90;;;12.30;;
53287;SDS011;39172;45.550;12.072;2023-02-08T08:49:18;27.38;;;14.48;;
53287;SDS011;39172;45.550;12.072;2023-02-08T08:55:19;30.83;;;14.90;;
53287;SDS011;39172;45.550;12.072;2023-02-08T09:01:20;28.17;;;13.00;;
53287;SDS011;39172;45.550;12.072;2023-02-08T09:07:21;37.50;;;15.60;;
53287;SDS011;39172;45.550;12.072;2023-02-08T09:13:22;28.42;;;14.32;;
53287;SDS011;39172;45.550;12.072;2023-02-08T09:19:23;24.50;;;13.55;;
53287;SDS011;39172;45.550;12.072;2023-02-08T09:25:23;26.30;;;14.13;;
53287;SDS011;39172;45.550;12.072;2023-02-08T09:31:25;24.23;;;13.77;;
53287;SDS011;39172;45.550;12.072;2023-02-08T09:37:27;25.05;;;12.32;;
53287;SDS011;39172;45.550;12.072;2023-02-08T09:49:31;31.50;;;16.27;;
53287;SDS011;39172;45.550;12.072;2023-02-08T09:55:36;24.92;;;13.20;;
53287;SDS011;39172;45.550;12.072;2023-02-08T10:01:38;23.23;;;12.45;;
53287;SDS011;39172;45.550;12.072;2023-02-08T10:07:39;24.85;;;12.90;;
53287;SDS011;39172;45.550;12.072;2023-02-08T10:19:55;23.60;;;12.80;;
53287;SDS011;39172;45.550;12.072;2023-02-08T10:26:08;26.88;;;14.02;;
53287;SDS011;39172;45.550;12.072;2023-02-08T11:02:30;23.63;;;13.38;;
53287;SDS011;39172;45.550;12.072;2023-02-08T11:08:31;21.33;;;11.80;;
53287;SDS011;39172;45.550;12.072;2023-02-08T11:14:39;26.55;;;13.57;;
53287;SDS011;39172;45.550;12.072;2023-02-08T11:20:40;25.02;;;13.07;;
53287;SDS011;39172;45.550;12.072;2023-02-08T11:26:41;25.13;;;13.55;;
53287;SDS011;39172;45.550;12.072;2023-02-08T11:32:43;20.90;;;11.68;;
53287;SDS011;39172;45.550;12.072;2023-02-08T11:38:44;21.70;;;12.18;;
53287;SDS011;39172;45.550;12.072;2023-02-08T11:44:46;22.65;;;11.48;;
53287;SDS011;39172;45.550;12.072;2023-02-08T11:50:52;21.60;;;12.13;;
53287;SDS011;39172;45.550;12.072;2023-02-08T11:57:00;18.67;;;10.63;;
53287;SDS011;39172;45.550;12.072;2023-02-08T12:03:34;20.75;;;11.35;;
53287;SDS011;39172;45.550;12.072;2023-02-08T12:46:50;19.85;;;12.02;;
53287;SDS011;39172;45.550;12.072;2023-02-08T12:52:58;20.45;;;10.20;;
53287;SDS011;39172;45.550;12.072;2023-02-08T12:59:00;18.92;;;10.90;;
53287;SDS011;39172;45.550;12.072;2023-02-08T13:05:03;22.20;;;12.18;;
53287;SDS011;39172;45.550;12.072;2023-02-08T13:11:15;21.50;;;11.85;;
53287;SDS011;39172;45.550;12.072;2023-02-08T13:17:23;18.77;;;10.82;;
53287;SDS011;39172;45.550;12.072;2023-02-08T13:23:25;17.80;;;9.82;;
53287;SDS011;39172;45.550;12.072;2023-02-08T13:29:26;16.60;;;9.38;;
53287;SDS011;39172;45.550;12.072;2023-02-08T13:35:29;18.25;;;10.32;;
53287;SDS011;39172;45.550;12.072;2023-02-08T13:41:30;19.40;;;10.18;;
53287;SDS011;39172;45.550;12.072;2023-02-08T13:47:41;18.48;;;10.60;;
53287;SDS011;39172;45.550;12.072;2023-02-08T13:54:08;19.00;;;10.48;;
53287;SDS011;39172;45.550;12.072;2023-02-08T14:00:23;20.15;;;10.55;;
53287;SDS011;39172;45.550;12.072;2023-02-08T14:06:25;16.73;;;9.40;;
53287;SDS011;39172;45.550;12.072;2023-02-08T14:12:43;19.88;;;10.00;;
53287;SDS011;39172;45.550;12.072;2023-02-08T14:18:55;14.50;;;8.73;;
53287;SDS011;39172;45.550;12.072;2023-02-08T14:31:16;14.57;;;7.10;;
53287;SDS011;39172;45.550;12.072;2023-02-08T14:49:18;11.27;;;6.10;;
53287;SDS011;39172;45.550;12.072;2023-02-08T14:55:23;14.60;;;7.40;;
53287;SDS011;39172;45.550;12.072;2023-02-08T15:01:31;16.42;;;7.03;;
53287;SDS011;39172;45.550;12.072;2023-02-08T15:07:38;9.70;;;5.50;;
53287;SDS011;39172;45.550;12.072;2023-02-08T15:13:41;9.43;;;5.60;;
53287;SDS011;39172;45.550;12.072;2023-02-08T15:19:47;11.05;;;5.97;;
53287;SDS011;39172;45.550;12.072;2023-02-08T15:25:57;10.77;;;5.68;;
53287;SDS011;39172;45.550;12.072;2023-02-08T15:31:58;8.65;;;4.70;;
53287;SDS011;39172;45.550;12.072;2023-02-08T15:37:58;10.38;;;5.70;;
53287;SDS011;39172;45.550;12.072;2023-02-08T15:44:04;11.77;;;6.38;;
53287;SDS011;39172;45.550;12.072;2023-02-08T15:50:15;10.43;;;5.72;;
53287;SDS011;39172;45.550;12.072;2023-02-08T15:56:18;11.70;;;6.30;;
53287;SDS011;39172;45.550;12.072;2023-02-08T16:08:21;11.52;;;6.38;;
53287;SDS011;39172;45.550;12.072;2023-02-08T16:14:24;10.20;;;6.05;;
53287;SDS011;39172;45.550;12.072;2023-02-08T16:20:26;11.27;;;6.50;;
53287;SDS011;39172;45.550;12.072;2023-02-08T16:26:39;12.05;;;6.70;;
53287;SDS011;39172;45.550;12.072;2023-02-08T16:32:41;11.93;;;6.38;;
53287;SDS011;39172;45.550;12.072;2023-02-08T16:38:42;12.65;;;7.30;;
53287;SDS011;39172;45.550;12.072;2023-02-08T16:45:02;13.50;;;6.38;;
53287;SDS011;39172;45.550;12.072;2023-02-08T16:51:13;14.20;;;7.35;;
53287;SDS011;39172;45.550;12.072;2023-02-08T16:57:16;14.50;;;7.70;;
53287;SDS011;39172;45.550;12.072;2023-02-08T17:03:17;15.93;;;8.35;;
53287;SDS011;39172;45.550;12.072;2023-02-08T17:09:18;12.70;;;7.18;;
53287;SDS011;39172;45.550;12.072;2023-02-08T17:15:19;14.20;;;7.32;;
53287;SDS011;39172;45.550;12.072;2023-02-08T17:21:24;13.25;;;7.45;;
53287;SDS011;39172;45.550;12.072;2023-02-08T17:27:25;15.70;;;8.15;;
53287;SDS011;39172;45.550;12.072;2023-02-08T17:33:26;12.02;;;6.95;;
53287;SDS011;39172;45.550;12.072;2023-02-08T17:39:28;10.57;;;6.38;;
53287;SDS011;39172;45.550;12.072;2023-02-08T17:45:29;14.05;;;7.18;;
53287;SDS011;39172;45.550;12.072;2023-02-08T17:51:30;10.05;;;5.50;;
53287;SDS011;39172;45.550;12.072;2023-02-08T17:57:33;11.18;;;5.95;;
53287;SDS011;39172;45.550;12.072;2023-02-08T18:03:34;11.07;;;5.60;;
53287;SDS011;39172;45.550;12.072;2023-02-08T18:09:35;10.98;;;6.35;;
53287;SDS011;39172;45.550;12.072;2023-02-08T18:15:37;10.63;;;6.18;;
53287;SDS011;39172;45.550;12.072;2023-02-08T18:21:38;10.15;;;5.80;;
53287;SDS011;39172;45.550;12.072;2023-02-08T18:27:38;9.65;;;5.38;;
53287;SDS011;39172;45.550;12.072;2023-02-08T18:33:40;10.45;;;5.60;;
53287;SDS011;39172;45.550;12.072;2023-02-08T18:39:41;8.98;;;5.25;;
53287;SDS011;39172;45.550;12.072;2023-02-08T18:45:42;7.55;;;4.50;;
53287;SDS011;39172;45.550;12.072;2023-02-08T18:51:45;9.07;;;4.78;;
53287;SDS011;39172;45.550;12.072;2023-02-08T18:57:46;9.18;;;4.90;;
53287;SDS011;39172;45.550;12.072;2023-02-08T19:03:47;7.30;;;4.20;;
53287;SDS011;39172;45.550;12.072;2023-02-08T19:09:48;7.18;;;4.05;;
53287;SDS011;39172;45.550;12.072;2023-02-08T19:15:49;10.57;;;5.40;;
53287;SDS011;39172;45.550;12.072;2023-02-08T19:21:50;8.45;;;4.72;;
53287;SDS011;39172;45.550;12.072;2023-02-08T19:27:51;10.52;;;5.57;;
53287;SDS011;39172;45.550;12.072;2023-02-08T19:33:52;8.65;;;4.85;;
53287;SDS011;39172;45.550;12.072;2023-02-08T19:39:56;9.48;;;5.55;;
53287;SDS011;39172;45.550;12.072;2023-02-08T19:45:57;9.55;;;5.53;;
53287;SDS011;39172;45.550;12.072;2023-02-08T19:51:58;10.63;;;5.75;;
53287;SDS011;39172;45.550;12.072;2023-02-08T19:57:59;9.85;;;5.65;;
53287;SDS011;39172;45.550;12.072;2023-02-08T20:04:00;11.00;;;5.75;;
53287;SDS011;39172;45.550;12.072;2023-02-08T20:10:02;10.77;;;5.85;;
53287;SDS011;39172;45.550;12.072;2023-02-08T20:16:03;11.70;;;5.95;;
53287;SDS011;39172;45.550;12.072;2023-02-08T20:22:04;9.48;;;5.13;;
53287;SDS011;39172;45.550;12.072;2023-02-08T20:28:04;9.02;;;5.15;;
53287;SDS011;39172;45.550;12.072;2023-02-08T20:34:06;10.75;;;5.85;;
53287;SDS011;39172;45.550;12.072;2023-02-08T20:40:08;10.10;;;5.30;;
53287;SDS011;39172;45.550;12.072;2023-02-08T20:46:13;9.75;;;5.53;;
53287;SDS011;39172;45.550;12.072;2023-02-08T20:52:14;14.57;;;7.90;;
53287;SDS011;39172;45.550;12.072;2023-02-08T20:58:15;13.27;;;7.72;;
53287;SDS011;39172;45.550;12.072;2023-02-08T21:04:16;15.70;;;8.05;;
53287;SDS011;39172;45.550;12.072;2023-02-08T21:10:17;16.95;;;8.48;;
53287;SDS011;39172;45.550;12.072;2023-02-08T21:16:18;11.80;;;6.47;;
53287;SDS011;39172;45.550;12.072;2023-02-08T21:22:19;13.25;;;7.35;;
53287;SDS011;39172;45.550;12.072;2023-02-08T21:28:20;13.88;;;6.95;;
53287;SDS011;39172;45.550;12.072;2023-02-08T21:34:22;12.65;;;6.57;;
53287;SDS011;39172;45.550;12.072;2023-02-08T21:40:23;12.65;;;6.72;;
53287;SDS011;39172;45.550;12.072;2023-02-08T21:46:24;12.45;;;7.30;;
53287;SDS011;39172;45.550;12.072;2023-02-08T21:52:25;14.20;;;7.20;;
53287;SDS011;39172;45.550;12.072;2023-02-08T21:58:44;15.82;;;8.07;;
53287;SDS011;39172;45.550;12.072;2023-02-08T22:04:45;14.75;;;7.63;;
53287;SDS011;39172;45.550;12.072;2023-02-08T22:10:46;12.15;;;5.95;;
53287;SDS011;39172;45.550;12.072;2023-02-08T22:16:47;18.63;;;9.50;;
53287;SDS011;39172;45.550;12.072;2023-02-08T22:22:48;13.25;;;7.00;;
53287;SDS011;39172;45.550;12.072;2023-02-08T22:28:51;13.05;;;6.55;;
53287;SDS011;39172;45.550;12.072;2023-02-08T22:34:52;18.95;;;9.40;;
53287;SDS011;39172;45.550;12.072;2023-02-08T22:40:52;18.42;;;9.30;;
53287;SDS011;39172;45.550;12.072;2023-02-08T22:46:53;16.92;;;8.07;;
53287;SDS011;39172;45.550;12.072;2023-02-08T22:52:55;17.90;;;9.27;;
53287;SDS011;39172;45.550;12.072;2023-02-08T22:58:57;13.90;;;7.45;;
53287;SDS011;39172;45.550;12.072;2023-02-08T23:04:58;11.23;;;5.93;;
53287;SDS011;39172;45.550;12.072;2023-02-08T23:11:00;16.63;;;8.63;;
53287;SDS011;39172;45.550;12.072;2023-02-08T23:17:01;11.90;;;6.38;;
53287;SDS011;39172;45.550;12.072;2023-02-08T23:23:01;12.98;;;6.75;;
53287;SDS011;39172;45.550;12.072;2023-02-08T23:29:02;14.77;;;7.88;;
53287;SDS011;39172;45.550;12.072;2023-02-08T23:35:03;14.48;;;8.25;;
53287;SDS011;39172;45.550;12.072;2023-02-08T23:41:05;13.30;;;6.70;;
53287;SDS011;39172;45.550;12.072;2023-02-08T23:47:06;15.38;;;8.15;;
53287;SDS011;39172;45.550;12.072;2023-02-08T23:53:07;11.30;;;6.07;;
53287;SDS011;39172;45.550;12.072;2023-02-08T23:59:08;11.75;;;6.55;;
